createdAt,value
2022-09-24T00:02:11.824Z,100.00
2022-09-24T00:04:40.477Z,100.00
2022-09-24T00:07:08.999Z,100.00
2022-09-24T00:09:37.504Z,100.00
2022-09-24T00:12:06.078Z,100.00
2022-09-24T00:14:34.681Z,100.00
2022-09-24T00:17:03.268Z,100.00
2022-09-24T00:19:32.070Z,100.00
2022-09-24T00:22:00.780Z,100.00
2022-09-24T00:24:47.514Z,100.00
2022-09-24T00:27:16.075Z,100.00
2022-09-24T00:29:44.594Z,100.00
2022-09-24T00:32:14.456Z,100.00
2022-09-24T00:34:43.122Z,100.00
2022-09-24T00:37:12.185Z,100.00
2022-09-24T00:39:40.780Z,100.00
2022-09-24T00:42:11.274Z,100.00
2022-09-24T00:44:42.482Z,100.00
2022-09-24T00:47:14.031Z,100.00
2022-09-24T00:49:43.873Z,100.00
2022-09-24T00:52:12.413Z,100.00
2022-09-24T00:54:41.303Z,100.00
2022-09-24T00:57:09.975Z,100.00
2022-09-24T00:59:39.292Z,100.00
2022-09-24T01:02:08.676Z,100.00
2022-09-24T01:04:37.280Z,100.00
2022-09-24T01:07:05.792Z,100.00
2022-09-24T01:09:35.211Z,100.00
2022-09-24T01:12:12.359Z,100.00
2022-09-24T01:15:04.976Z,100.00
2022-09-24T01:18:01.912Z,100.00
2022-09-24T01:20:48.261Z,100.00
2022-09-24T01:23:25.621Z,100.00
2022-09-24T01:26:22.672Z,100.00
2022-09-24T01:29:05.188Z,100.00
2022-09-24T01:31:42.779Z,100.00
2022-09-24T01:34:16.644Z,100.00
2022-09-24T01:36:47.892Z,100.00
2022-09-24T01:39:16.569Z,99.99
2022-09-24T01:41:46.513Z,100.00
2022-09-24T01:44:15.342Z,100.00
2022-09-24T01:46:44.558Z,99.47
2022-09-24T01:49:13.360Z,99.41
2022-09-24T01:52:00.299Z,99.02
2022-09-24T01:54:43.560Z,99.47
2022-09-24T01:57:33.175Z,99.33
2022-09-24T02:00:10.953Z,99.21
2022-09-24T02:03:09.782Z,99.36
2022-09-24T02:06:09.861Z,99.20
2022-09-24T02:08:46.271Z,99.32
2022-09-24T02:11:22.788Z,99.73
2022-09-24T02:14:29.324Z,99.01
2022-09-24T02:16:59.974Z,99.49
2022-09-24T02:19:31.185Z,99.05
2022-09-24T02:22:00.332Z,99.26
2022-09-24T02:24:46.998Z,98.57
2022-09-24T02:27:15.629Z,99.07
2022-09-24T02:29:45.525Z,98.97
2022-09-24T02:32:18.823Z,99.47
2022-09-24T02:34:52.943Z,99.35
2022-09-24T02:37:25.263Z,99.37
2022-09-24T02:39:53.830Z,99.12
2022-09-24T02:42:23.542Z,98.56
2022-09-24T02:44:53.349Z,98.96
2022-09-24T02:47:21.831Z,99.02
2022-09-24T02:49:50.448Z,99.08
2022-09-24T02:52:19.933Z,98.96
2022-09-24T02:54:48.480Z,98.90
2022-09-24T02:57:17.323Z,98.83
2022-09-24T02:59:46.482Z,99.20
2022-09-24T03:02:16.354Z,97.83
2022-09-24T03:04:44.983Z,97.51
2022-09-24T03:07:15.636Z,97.86
2022-09-24T03:09:44.130Z,97.38
2022-09-24T03:12:13.750Z,97.57
2022-09-24T03:14:42.250Z,97.60
2022-09-24T03:17:10.746Z,97.30
2022-09-24T03:19:39.323Z,97.46
2022-09-24T03:22:07.840Z,96.46
2022-09-24T03:24:39.659Z,95.80
2022-09-24T03:27:08.578Z,95.79
2022-09-24T03:29:57.361Z,95.47
2022-09-24T03:32:25.832Z,96.01
2022-09-24T03:34:55.042Z,96.15
2022-09-24T03:37:23.486Z,96.45
2022-09-24T03:39:52.294Z,95.75
2022-09-24T03:42:20.963Z,96.26
2022-09-24T03:44:49.543Z,96.19
2022-09-24T03:47:18.079Z,95.64
2022-09-24T03:49:46.592Z,94.89
2022-09-24T03:52:15.220Z,95.53
2022-09-24T03:54:43.682Z,96.12
2022-09-24T03:57:15.862Z,95.14
2022-09-24T03:59:45.452Z,95.33
2022-09-24T04:02:14.411Z,94.61
2022-09-24T04:04:43.138Z,94.81
2022-09-24T04:07:13.991Z,94.97
2022-09-24T04:09:42.757Z,94.25
2022-09-24T04:12:11.457Z,93.97
2022-09-24T04:14:41.201Z,95.28
2022-09-24T04:17:13.608Z,94.45
2022-09-24T04:19:42.210Z,93.96
2022-09-24T04:22:10.741Z,94.99
2022-09-24T04:24:39.349Z,93.43
2022-09-24T04:27:07.874Z,91.96
2022-09-24T04:29:36.390Z,92.13
2022-09-24T04:32:04.930Z,93.39
2022-09-24T04:34:34.383Z,93.69
2022-09-24T04:37:02.873Z,93.50
2022-09-24T04:39:31.319Z,93.23
2022-09-24T04:42:00.147Z,93.03
2022-09-24T04:44:30.130Z,93.35
2022-09-24T04:47:02.489Z,92.59
2022-09-24T04:49:31.480Z,92.25
2022-09-24T04:52:00.068Z,93.16
2022-09-24T04:54:29.046Z,92.74
2022-09-24T04:56:57.586Z,94.34
2022-09-24T04:59:26.009Z,94.42
2022-09-24T05:01:55.652Z,93.19
2022-09-24T05:04:24.758Z,93.59
2022-09-24T05:06:53.229Z,93.14
2022-09-24T05:09:21.688Z,93.13
2022-09-24T05:11:50.168Z,92.74
2022-09-24T05:14:18.730Z,92.56
2022-09-24T05:16:47.359Z,92.78
2022-09-24T05:19:15.861Z,92.68
2022-09-24T05:21:44.369Z,92.54
2022-09-24T05:24:12.826Z,93.06
2022-09-24T05:26:59.574Z,93.21
2022-09-24T05:29:28.471Z,93.15
2022-09-24T05:31:57.273Z,93.09
2022-09-24T05:34:25.814Z,92.66
2022-09-24T05:36:54.314Z,92.92
2022-09-24T05:39:22.873Z,92.85
2022-09-24T05:41:51.445Z,92.97
2022-09-24T05:44:21.922Z,93.37
2022-09-24T05:46:51.523Z,93.02
2022-09-24T05:49:20.914Z,93.12
2022-09-24T05:51:51.243Z,93.09
2022-09-24T05:54:20.677Z,91.67
2022-09-24T05:56:49.160Z,92.88
2022-09-24T05:59:17.692Z,92.44
2022-09-24T06:01:46.288Z,92.16
2022-09-24T06:04:14.991Z,92.54
2022-09-24T06:06:44.641Z,93.89
2022-09-24T06:09:13.272Z,91.08
2022-09-24T06:11:41.927Z,92.05
2022-09-24T06:14:10.824Z,92.23
2022-09-24T06:16:39.342Z,91.38
2022-09-24T06:19:08.007Z,90.88
2022-09-24T06:21:36.534Z,90.27
2022-09-24T06:24:05.155Z,90.31
2022-09-24T06:26:34.282Z,90.78
2022-09-24T06:29:05.249Z,90.99
2022-09-24T06:31:35.712Z,91.12
2022-09-24T06:34:04.211Z,90.99
2022-09-24T06:36:32.632Z,91.36
2022-09-24T06:39:01.164Z,90.21
2022-09-24T06:41:29.721Z,89.19
2022-09-24T06:43:58.171Z,88.37
2022-09-24T06:46:28.646Z,89.69
2022-09-24T06:48:57.185Z,90.99
2022-09-24T06:51:25.685Z,89.44
2022-09-24T06:53:54.502Z,88.64
2022-09-24T06:56:23.053Z,89.02
2022-09-24T06:58:51.582Z,89.49
2022-09-24T07:01:20.270Z,89.34
2022-09-24T07:03:48.856Z,89.47
2022-09-24T07:06:17.510Z,89.85
2022-09-24T07:08:46.006Z,87.62
2022-09-24T07:11:16.382Z,87.27
2022-09-24T07:13:45.051Z,87.60
2022-09-24T07:16:13.644Z,87.04
2022-09-24T07:18:42.215Z,87.92
2022-09-24T07:21:10.772Z,86.54
2022-09-24T07:23:39.842Z,87.76
2022-09-24T07:26:08.374Z,87.42
2022-09-24T07:28:36.902Z,86.94
2022-09-24T07:31:05.677Z,86.85
2022-09-24T07:33:34.384Z,89.05
2022-09-24T07:36:08.634Z,87.14
2022-09-24T07:38:40.172Z,88.59
2022-09-24T07:41:10.690Z,89.25
2022-09-24T07:43:39.639Z,89.60
2022-09-24T07:46:08.335Z,88.81
2022-09-24T07:48:36.886Z,88.43
2022-09-24T07:51:07.369Z,86.94
2022-09-24T07:53:36.186Z,87.41
2022-09-24T07:56:05.840Z,88.39
2022-09-24T07:58:34.523Z,88.36
2022-09-24T08:01:03.270Z,89.38
2022-09-24T08:03:32.577Z,90.07
2022-09-24T08:06:02.937Z,90.03
2022-09-24T08:08:31.561Z,90.49
2022-09-24T08:11:05.108Z,89.54
2022-09-24T08:13:35.486Z,89.16
2022-09-24T08:16:05.192Z,89.12
2022-09-24T08:18:34.704Z,88.40
2022-09-24T08:21:08.644Z,88.77
2022-09-24T08:23:37.454Z,88.53
2022-09-24T08:26:06.298Z,88.71
2022-09-24T08:28:35.593Z,89.40
2022-09-24T08:31:10.010Z,90.09
2022-09-24T08:33:40.071Z,91.06
2022-09-24T08:36:10.938Z,91.27
2022-09-24T08:38:40.047Z,90.30
2022-09-24T08:41:14.280Z,88.94
2022-09-24T08:44:00.301Z,89.33
2022-09-24T08:46:54.692Z,89.08
2022-09-24T08:49:31.890Z,89.74
2022-09-24T08:52:11.309Z,90.29
2022-09-24T08:54:42.298Z,91.39
2022-09-24T08:57:19.164Z,92.16
2022-09-24T08:59:53.067Z,92.27
2022-09-24T09:02:27.467Z,92.22
2022-09-24T09:05:21.072Z,91.85
2022-09-24T09:08:41.410Z,91.44
2022-09-24T09:11:09.656Z,90.72
2022-09-24T09:13:43.272Z,89.08
2022-09-24T09:16:52.816Z,89.69
2022-09-24T09:19:27.259Z,90.58
2022-09-24T09:22:16.216Z,91.40
2022-09-24T09:24:50.671Z,91.67
2022-09-24T09:27:20.702Z,91.18
2022-09-24T09:30:04.385Z,91.63
2022-09-24T09:33:02.247Z,92.35
2022-09-24T09:35:34.229Z,92.87
2022-09-24T09:38:20.178Z,93.51
2022-09-24T09:41:07.234Z,93.57
2022-09-24T09:43:36.424Z,93.66
2022-09-24T09:46:35.883Z,94.07
2022-09-24T09:49:08.563Z,94.47
2022-09-24T09:51:44.049Z,94.33
2022-09-24T09:54:12.629Z,94.21
2022-09-24T09:56:50.175Z,94.00
2022-09-24T09:59:29.456Z,92.92
2022-09-24T10:01:58.943Z,93.18
2022-09-24T10:04:36.769Z,93.15
2022-09-24T10:07:16.791Z,93.54
2022-09-24T10:09:47.928Z,93.82
2022-09-24T10:12:25.392Z,94.22
2022-09-24T10:15:17.677Z,93.95
2022-09-24T10:17:49.473Z,94.13
2022-09-24T10:20:36.264Z,94.35
2022-09-24T10:23:09.372Z,95.17
2022-09-24T10:25:38.365Z,94.88
2022-09-24T10:28:37.209Z,94.45
2022-09-24T10:31:12.702Z,93.58
2022-09-24T10:33:44.440Z,93.75
2022-09-24T10:36:18.592Z,93.63
2022-09-24T10:38:47.390Z,93.77
2022-09-24T10:41:28.349Z,94.65
2022-09-24T10:43:58.659Z,95.06
2022-09-24T10:46:41.824Z,95.16
2022-09-24T10:49:21.897Z,94.87
2022-09-24T10:52:11.243Z,95.20
2022-09-24T10:55:03.874Z,95.91
2022-09-24T10:57:43.020Z,95.58
2022-09-24T11:00:17.957Z,95.69
2022-09-24T11:03:17.335Z,96.01
2022-09-24T11:06:09.842Z,95.86
2022-09-24T11:09:02.944Z,95.52
2022-09-24T11:11:56.493Z,95.74
2022-09-24T11:14:30.670Z,96.18
2022-09-24T11:17:08.118Z,95.74
2022-09-24T11:19:39.268Z,95.33
2022-09-24T11:22:18.043Z,95.61
2022-09-24T11:25:23.231Z,96.10
2022-09-24T11:28:10.304Z,96.23
2022-09-24T11:30:53.850Z,96.29
2022-09-24T11:33:31.159Z,96.33
2022-09-24T11:36:38.614Z,96.08
2022-09-24T11:39:44.152Z,93.89
2022-09-24T11:42:53.649Z,93.14
2022-09-24T11:45:38.133Z,90.20
2022-09-24T11:48:38.454Z,91.79
2022-09-24T11:51:34.695Z,91.63
2022-09-24T11:54:28.335Z,92.36
2022-09-24T11:57:13.654Z,93.57
2022-09-24T11:59:48.999Z,92.65
2022-09-24T12:02:32.122Z,93.52
2022-09-24T12:05:16.308Z,93.57
2022-09-24T12:08:10.193Z,93.59
2022-09-24T12:11:15.350Z,94.14
2022-09-24T12:13:49.945Z,95.18
2022-09-24T12:16:22.901Z,95.94
2022-09-24T12:18:57.430Z,96.03
2022-09-24T12:21:47.947Z,96.70
2022-09-24T12:24:21.725Z,96.70
2022-09-24T12:26:52.425Z,97.10
2022-09-24T12:30:16.255Z,97.84
2022-09-24T12:33:14.594Z,97.96
2022-09-24T12:36:09.185Z,98.74
2022-09-24T12:38:43.864Z,98.89
2022-09-24T12:41:30.777Z,98.55
2022-09-24T12:44:21.108Z,99.19
2022-09-24T12:46:56.992Z,99.21
2022-09-24T12:49:28.498Z,99.81
2022-09-24T13:01:03.916Z,100.00
2022-09-24T13:03:46.078Z,100.00
2022-09-24T13:06:37.126Z,99.97
2022-09-24T13:09:26.129Z,100.00
2022-09-24T13:12:15.518Z,100.00
2022-09-24T13:14:51.306Z,99.86
2022-09-24T13:17:20.275Z,99.93
2022-09-24T13:19:50.988Z,100.00
2022-09-24T13:22:24.947Z,100.00
2022-09-24T13:25:06.661Z,100.00
2022-09-24T13:27:38.957Z,100.00
2022-09-24T13:30:13.510Z,100.00
2022-09-24T13:33:14.174Z,100.00
2022-09-24T13:36:14.788Z,100.00
2022-09-24T13:44:59.798Z,100.00
2022-09-24T13:47:38.815Z,100.00
2022-09-24T13:50:26.059Z,100.00
2022-09-24T13:53:09.104Z,100.00
2022-09-24T13:55:54.957Z,100.00
2022-09-24T13:58:33.981Z,100.00
2022-09-24T14:01:13.207Z,100.00
2022-09-24T14:03:42.920Z,100.00
2022-09-24T14:06:16.716Z,100.00
2022-09-24T14:08:48.286Z,100.00
2022-09-24T14:11:25.755Z,100.00
2022-09-24T14:13:56.117Z,100.00
2022-09-24T14:16:26.248Z,100.00
2022-09-24T14:19:07.817Z,100.00
2022-09-24T14:21:48.955Z,100.00
2022-09-24T14:24:25.455Z,100.00
2022-09-24T14:27:03.201Z,100.00
2022-09-24T14:29:45.447Z,100.00
2022-09-24T14:32:34.432Z,100.00
2022-09-24T14:35:07.239Z,100.00
2022-09-24T14:37:50.854Z,100.00
2022-09-24T14:40:22.988Z,100.00
2022-09-24T14:43:01.016Z,100.00
2022-09-24T14:45:38.979Z,100.00
2022-09-24T14:48:31.060Z,100.00
2022-09-24T14:50:59.968Z,100.00
2022-09-24T14:53:38.934Z,100.00
2022-09-24T14:56:27.855Z,100.00
2022-09-24T14:58:56.668Z,100.00
2022-09-24T15:01:32.206Z,100.00
2022-09-24T15:04:19.485Z,100.00
2022-09-24T15:06:49.619Z,100.00
2022-09-24T15:09:23.899Z,100.00
2022-09-24T15:11:56.335Z,100.00
2022-09-24T15:14:32.531Z,100.00
2022-09-24T15:17:22.987Z,100.00
2022-09-24T15:19:55.647Z,100.00
2022-09-24T15:22:25.382Z,100.00
2022-09-24T15:25:00.968Z,100.00
2022-09-24T15:27:33.231Z,100.00
2022-09-24T15:30:05.632Z,100.00
2022-09-24T15:32:37.747Z,100.00
2022-09-24T15:35:10.470Z,100.00
2022-09-24T15:37:40.830Z,100.00
2022-09-24T15:40:24.298Z,100.00
2022-09-24T15:42:53.443Z,100.00
2022-09-24T15:45:24.732Z,100.00
2022-09-24T15:47:54.752Z,100.00
2022-09-24T15:50:25.287Z,100.00
2022-09-24T15:52:58.809Z,100.00
2022-09-24T15:55:27.670Z,100.00
2022-09-24T15:57:56.438Z,100.00
2022-09-24T16:00:26.868Z,100.00
2022-09-24T16:02:57.871Z,100.00
2022-09-24T16:05:27.234Z,100.00
2022-09-24T16:07:55.889Z,100.00
2022-09-24T16:10:24.499Z,100.00
2022-09-24T16:12:53.028Z,100.00
2022-09-24T16:15:22.688Z,100.00
2022-09-24T16:17:51.325Z,100.00
2022-09-24T16:20:20.247Z,100.00
2022-09-24T16:22:48.827Z,100.00
2022-09-24T16:25:17.387Z,100.00
2022-09-24T16:27:46.020Z,100.00
2022-09-24T16:30:14.733Z,100.00
2022-09-24T16:32:43.298Z,100.00
2022-09-24T16:35:12.331Z,100.00
2022-09-24T16:37:42.668Z,100.00
2022-09-24T16:40:11.815Z,100.00
2022-09-24T16:42:40.511Z,100.00
2022-09-24T16:45:11.539Z,100.00
2022-09-24T16:47:40.077Z,100.00
2022-09-24T16:50:09.187Z,100.00
2022-09-24T16:52:37.727Z,100.00
2022-09-24T16:55:06.648Z,100.00
2022-09-24T16:57:38.505Z,100.00
2022-09-24T17:00:09.905Z,100.00
2022-09-24T17:02:39.095Z,100.00
2022-09-24T17:05:08.215Z,100.00
2022-09-24T17:07:36.941Z,100.00
2022-09-24T17:10:15.185Z,100.00
2022-09-24T17:12:52.289Z,100.00
2022-09-24T17:15:22.159Z,100.00
2022-09-24T17:17:51.841Z,100.00
2022-09-24T17:20:20.971Z,100.00
2022-09-24T17:22:50.832Z,100.00
2022-09-24T17:25:19.508Z,100.00
2022-09-24T17:27:48.071Z,100.00
2022-09-24T17:30:17.102Z,100.00
2022-09-24T17:32:45.659Z,100.00
2022-09-24T17:35:15.838Z,100.00
2022-09-24T17:37:45.293Z,100.00
2022-09-24T17:40:13.933Z,100.00
2022-09-24T17:42:46.826Z,100.00
2022-09-24T17:45:15.366Z,100.00
2022-09-24T17:47:59.070Z,100.00
2022-09-24T17:50:27.695Z,100.00
2022-09-24T17:52:56.153Z,100.00
2022-09-24T17:55:24.774Z,100.00
2022-09-24T17:57:53.382Z,100.00
2022-09-24T18:00:21.922Z,100.00
2022-09-24T18:02:50.562Z,100.00
2022-09-24T18:05:19.189Z,100.00
2022-09-24T18:07:48.198Z,100.00
2022-09-24T18:10:19.230Z,100.00
2022-09-24T18:12:47.757Z,100.00
2022-09-24T18:15:16.358Z,100.00
2022-09-24T18:17:44.921Z,100.00
2022-09-24T18:20:13.791Z,100.00
2022-09-24T18:22:42.363Z,100.00
2022-09-24T18:25:11.602Z,100.00
2022-09-24T18:27:40.222Z,100.00
2022-09-24T18:30:12.610Z,100.00
2022-09-24T18:32:41.540Z,100.00
2022-09-24T18:35:11.073Z,100.00
2022-09-24T18:37:40.099Z,100.00
2022-09-24T18:40:09.255Z,100.00
2022-09-24T18:42:37.760Z,100.00
2022-09-24T18:45:07.029Z,100.00
2022-09-24T18:47:39.425Z,100.00
2022-09-24T18:50:08.809Z,100.00
2022-09-24T18:52:37.662Z,100.00
2022-09-24T18:55:07.875Z,100.00
2022-09-24T18:57:36.427Z,100.00
2022-09-24T19:00:05.810Z,100.00
2022-09-24T19:02:34.453Z,100.00
2022-09-24T19:05:03.028Z,100.00
2022-09-24T19:07:31.737Z,100.00
2022-09-24T19:10:00.398Z,100.00
2022-09-24T19:12:30.808Z,100.00
2022-09-24T19:15:01.453Z,100.00
2022-09-24T19:17:30.031Z,100.00
2022-09-24T19:20:00.189Z,100.00
2022-09-24T19:22:28.714Z,100.00
2022-09-24T19:24:57.218Z,100.00
2022-09-24T19:27:25.728Z,100.00
2022-09-24T19:29:54.868Z,100.00
2022-09-24T19:32:23.477Z,100.00
2022-09-24T19:34:51.976Z,100.00
2022-09-24T19:37:20.457Z,100.00
2022-09-24T19:39:48.997Z,100.00
2022-09-24T19:42:17.549Z,100.00
2022-09-24T19:44:46.328Z,100.00
2022-09-24T19:47:14.819Z,100.00
2022-09-24T19:49:43.458Z,100.00
2022-09-24T19:52:12.038Z,100.00
2022-09-24T19:54:40.469Z,100.00
2022-09-24T19:57:08.968Z,100.00
2022-09-24T19:59:37.898Z,100.00
2022-09-24T20:02:06.520Z,100.00
2022-09-24T20:04:35.659Z,100.00
2022-09-24T20:07:06.047Z,100.00
2022-09-24T20:09:34.757Z,100.00
2022-09-24T20:12:03.734Z,100.00
2022-09-24T20:14:33.805Z,100.00
2022-09-24T20:17:02.437Z,100.00
2022-09-24T20:19:30.906Z,100.00
2022-09-24T20:21:59.977Z,100.00
2022-09-24T20:24:28.774Z,100.00
2022-09-24T20:27:15.382Z,100.00
2022-09-24T20:29:45.191Z,100.00
2022-09-24T20:32:16.889Z,100.00
2022-09-24T20:34:45.341Z,100.00
2022-09-24T20:37:13.870Z,100.00
2022-09-24T20:39:42.440Z,100.00
2022-09-24T20:42:10.980Z,100.00
2022-09-24T20:44:39.420Z,100.00
2022-09-24T20:47:07.851Z,100.00
2022-09-24T20:49:36.767Z,100.00
2022-09-24T20:52:06.751Z,100.00
2022-09-24T20:54:35.733Z,100.00
2022-09-24T20:57:04.572Z,100.00
2022-09-24T20:59:33.100Z,100.00
2022-09-24T21:02:01.636Z,100.00
2022-09-24T21:04:30.151Z,100.00
2022-09-24T21:06:58.680Z,100.00
2022-09-24T21:09:27.152Z,100.00
2022-09-24T21:11:55.790Z,100.00
2022-09-24T21:14:24.642Z,100.00
2022-09-24T21:16:56.121Z,100.00
2022-09-24T21:19:25.430Z,100.00
2022-09-24T21:21:54.892Z,100.00
2022-09-24T21:24:27.692Z,100.00
2022-09-24T21:27:00.477Z,100.00
2022-09-24T21:29:29.159Z,100.00
2022-09-24T21:31:57.708Z,100.00
2022-09-24T21:34:26.897Z,100.00
2022-09-24T21:36:56.054Z,100.00
2022-09-24T21:39:27.767Z,100.00
2022-09-24T21:42:00.260Z,100.00
2022-09-24T21:44:34.994Z,100.00
2022-09-24T21:47:03.874Z,100.00
2022-09-24T21:49:34.622Z,100.00
2022-09-24T21:52:05.961Z,100.00
2022-09-24T21:54:35.061Z,100.00
2022-09-24T21:57:03.801Z,100.00
2022-09-24T21:59:50.596Z,100.00
2022-09-24T22:02:19.722Z,100.00
2022-09-24T22:04:48.694Z,100.00
2022-09-24T22:07:17.316Z,100.00
2022-09-24T22:09:45.775Z,100.00
2022-09-24T22:12:14.426Z,100.00
2022-09-24T22:14:42.868Z,100.00
2022-09-24T22:17:11.463Z,100.00
2022-09-24T22:19:40.166Z,100.00
2022-09-24T22:22:08.756Z,100.00
2022-09-24T22:24:37.534Z,100.00
2022-09-24T22:27:06.146Z,100.00
2022-09-24T22:29:34.845Z,100.00
2022-09-24T22:32:04.637Z,100.00
2022-09-24T22:34:51.447Z,100.00
2022-09-24T22:37:19.899Z,100.00
2022-09-24T22:39:48.400Z,100.00
2022-09-24T22:42:16.928Z,100.00
2022-09-24T22:44:45.517Z,100.00
2022-09-24T22:47:14.066Z,100.00
2022-09-24T22:49:42.523Z,100.00
2022-09-24T22:52:11.051Z,100.00
2022-09-24T22:54:39.530Z,100.00
2022-09-24T22:57:07.941Z,100.00
2022-09-24T22:59:36.432Z,100.00
2022-09-24T23:02:08.206Z,100.00
2022-09-24T23:04:39.489Z,100.00
2022-09-24T23:07:08.119Z,100.00
2022-09-24T23:09:36.602Z,100.00
2022-09-24T23:12:05.211Z,100.00
2022-09-24T23:14:33.729Z,100.00
2022-09-24T23:17:02.243Z,100.00
2022-09-24T23:19:49.647Z,100.00
2022-09-24T23:22:20.263Z,100.00
2022-09-24T23:24:51.465Z,100.00
2022-09-24T23:27:21.329Z,100.00
2022-09-24T23:29:49.825Z,100.00
2022-09-24T23:32:19.151Z,100.00
2022-09-24T23:34:47.668Z,100.00
2022-09-24T23:37:16.190Z,100.00
2022-09-24T23:39:44.723Z,100.00
2022-09-24T23:42:13.426Z,100.00
2022-09-24T23:44:42.174Z,100.00
2022-09-24T23:47:10.672Z,100.00
2022-09-24T23:49:39.222Z,100.00
2022-09-24T23:52:08.083Z,100.00
2022-09-24T23:54:40.537Z,100.00
2022-09-24T23:57:09.028Z,100.00
2022-09-24T23:59:37.579Z,100.00
